createdAt,value
2023-03-27T00:00:16.732Z,3.28
2023-03-27T00:04:22.849Z,3.13
2023-03-27T00:08:26.508Z,3.08
2023-03-27T00:12:29.803Z,3.05
2023-03-27T00:16:33.203Z,2.97
2023-03-27T00:20:39.244Z,2.83
2023-03-27T00:24:42.340Z,2.89
2023-03-27T00:28:45.863Z,2.78
2023-03-27T00:32:50.204Z,2.73
2023-03-27T00:36:55.285Z,2.67
2023-03-27T00:40:59.582Z,2.79
2023-03-27T00:45:03.428Z,2.64
2023-03-27T00:49:11.154Z,2.61
2023-03-27T00:53:19.074Z,2.54
2023-03-27T00:57:22.600Z,2.55
2023-03-27T01:01:28.569Z,2.58
2023-03-27T01:05:32.150Z,2.51
2023-03-27T01:09:37.147Z,2.47
2023-03-27T01:14:02.576Z,2.50
2023-03-27T01:18:27.834Z,2.51
2023-03-27T01:23:16.790Z,2.52
2023-03-27T01:28:08.572Z,2.40
2023-03-27T01:32:41.228Z,2.43
2023-03-27T01:37:13.511Z,2.38
2023-03-27T01:41:27.466Z,2.32
2023-03-27T01:45:37.496Z,2.32
2023-03-27T01:49:47.341Z,2.29
2023-03-27T01:53:53.933Z,2.26
2023-03-27T01:58:03.607Z,2.16
2023-03-27T02:02:14.296Z,2.17
2023-03-27T02:06:22.141Z,2.14
2023-03-27T02:10:30.493Z,2.10
2023-03-27T02:14:40.506Z,2.11
2023-03-27T02:18:51.616Z,2.00
2023-03-27T02:22:55.618Z,2.03
2023-03-27T02:27:04.495Z,2.09
2023-03-27T02:31:34.188Z,2.19
2023-03-27T02:35:46.279Z,2.07
2023-03-27T02:39:58.191Z,2.08
2023-03-27T02:44:10.223Z,1.93
2023-03-27T02:48:39.677Z,1.83
2023-03-27T02:52:48.139Z,1.81
2023-03-27T02:56:56.278Z,1.79
2023-03-27T03:01:10.041Z,1.77
2023-03-27T03:05:29.970Z,1.88
2023-03-27T03:09:34.813Z,1.82
2023-03-27T03:13:44.862Z,1.81
2023-03-27T03:17:48.416Z,1.84
2023-03-27T03:21:53.282Z,1.78
2023-03-27T03:25:57.042Z,1.86
2023-03-27T03:30:09.774Z,1.81
2023-03-27T03:34:23.587Z,1.73
2023-03-27T03:38:30.027Z,1.72
2023-03-27T03:42:47.472Z,1.75
2023-03-27T03:46:52.062Z,1.68
2023-03-27T03:50:57.979Z,1.82
2023-03-27T03:55:04.197Z,1.88
2023-03-27T03:59:07.492Z,1.97
2023-03-27T04:03:11.550Z,2.00
2023-03-27T04:07:17.817Z,2.05
2023-03-27T04:11:24.428Z,2.22
2023-03-27T04:15:41.756Z,2.29
2023-03-27T04:19:54.443Z,2.31
2023-03-27T04:24:02.748Z,2.35
2023-03-27T04:28:22.835Z,2.33
2023-03-27T04:32:37.585Z,2.34
2023-03-27T04:37:07.036Z,2.44
2023-03-27T04:41:11.685Z,2.32
2023-03-27T04:45:20.329Z,2.23
2023-03-27T04:49:26.402Z,2.23
2023-03-27T04:53:38.881Z,2.36
2023-03-27T04:57:47.216Z,2.42
2023-03-27T05:01:52.011Z,2.51
2023-03-27T05:06:12.068Z,2.53
2023-03-27T05:10:17.498Z,2.57
2023-03-27T05:14:26.535Z,2.71
2023-03-27T05:18:32.283Z,2.83
2023-03-27T05:22:35.852Z,2.99
2023-03-27T05:26:52.339Z,3.07
2023-03-27T05:30:57.283Z,3.07
2023-03-27T05:35:02.306Z,2.99
2023-03-27T05:39:13.225Z,2.96
2023-03-27T05:43:18.298Z,2.87
2023-03-27T05:47:21.615Z,2.87
2023-03-27T05:51:31.660Z,2.85
2023-03-27T05:55:36.024Z,2.85
2023-03-27T05:59:40.778Z,2.83
2023-03-27T06:03:56.859Z,2.74
2023-03-27T06:08:21.551Z,2.84
2023-03-27T06:12:26.177Z,2.92
2023-03-27T06:16:38.180Z,3.02
2023-03-27T06:21:16.397Z,3.13
2023-03-27T06:25:21.762Z,3.11
2023-03-27T06:29:29.654Z,3.07
2023-03-27T06:33:32.881Z,3.02
2023-03-27T06:37:41.094Z,2.92
2023-03-27T06:41:46.048Z,2.90
2023-03-27T06:46:00.362Z,3.00
2023-03-27T06:50:23.467Z,3.09
2023-03-27T06:54:28.404Z,3.26
2023-03-27T06:58:33.232Z,3.40
2023-03-27T07:02:37.034Z,3.49
2023-03-27T07:06:58.795Z,3.72
2023-03-27T07:15:13.980Z,4.17
2023-03-27T07:19:17.829Z,4.06
2023-03-27T07:23:26.822Z,4.10
2023-03-27T07:27:35.970Z,4.20
2023-03-27T07:31:55.935Z,4.60
2023-03-27T07:36:20.924Z,4.71
2023-03-27T07:40:40.175Z,4.79
2023-03-27T07:45:11.592Z,5.29
2023-03-27T07:49:16.256Z,5.21
2023-03-27T07:53:33.483Z,5.67
2023-03-27T07:57:59.688Z,4.94
2023-03-27T08:02:06.315Z,4.83
2023-03-27T08:06:15.697Z,5.24
2023-03-27T08:10:19.173Z,5.73
2023-03-27T08:14:32.110Z,5.95
2023-03-27T08:18:46.354Z,6.26
2023-03-27T08:22:53.919Z,5.93
2023-03-27T08:27:27.559Z,6.58
2023-03-27T08:31:31.577Z,6.96
2023-03-27T08:35:37.356Z,7.18
2023-03-27T08:39:42.976Z,6.85
2023-03-27T08:43:47.381Z,6.55
2023-03-27T08:48:01.765Z,6.93
2023-03-27T08:52:11.050Z,7.11
2023-03-27T08:56:18.745Z,6.99
2023-03-27T09:00:27.372Z,7.76
2023-03-27T09:04:48.831Z,8.15
2023-03-27T09:08:58.153Z,8.36
2023-03-27T09:13:10.369Z,6.90
2023-03-27T09:17:18.941Z,6.34
2023-03-27T09:21:32.584Z,7.57
2023-03-27T09:25:46.699Z,7.92
2023-03-27T09:30:24.072Z,9.25
2023-03-27T09:34:37.654Z,7.49
2023-03-27T09:38:46.704Z,6.73
2023-03-27T09:42:55.874Z,8.12
2023-03-27T09:47:06.028Z,6.59
2023-03-27T09:51:37.110Z,6.66
2023-03-27T09:55:53.187Z,7.40
2023-03-27T10:00:02.285Z,7.46
2023-03-27T10:04:17.300Z,7.32
2023-03-27T10:08:38.432Z,6.69
2023-03-27T10:12:58.405Z,6.23
2023-03-27T10:17:22.533Z,7.26
2023-03-27T10:21:35.567Z,9.00
2023-03-27T10:25:46.470Z,9.24
2023-03-27T10:29:55.627Z,9.17
2023-03-27T10:34:02.082Z,8.88
2023-03-27T10:38:26.605Z,9.02
2023-03-27T10:42:42.459Z,7.56
2023-03-27T10:46:46.432Z,7.18
2023-03-27T10:50:57.815Z,7.57
2023-03-27T10:55:41.614Z,8.28
2023-03-27T10:59:54.199Z,9.60
2023-03-27T11:04:08.403Z,9.45
2023-03-27T11:08:24.987Z,8.32
2023-03-27T11:12:33.155Z,9.62
2023-03-27T11:16:40.490Z,10.76
2023-03-27T11:21:08.748Z,9.03
2023-03-27T11:25:39.712Z,8.38
2023-03-27T11:29:57.666Z,8.03
2023-03-27T11:34:06.281Z,7.24
2023-03-27T11:38:17.429Z,6.70
2023-03-27T11:42:25.615Z,6.32
2023-03-27T11:46:45.156Z,6.62
2023-03-27T11:50:54.581Z,9.18
2023-03-27T11:55:11.726Z,7.23
2023-03-27T11:59:54.836Z,6.57
2023-03-27T12:04:11.957Z,6.09
2023-03-27T12:09:04.015Z,6.57
2023-03-27T12:13:41.298Z,7.59
2023-03-27T12:18:08.258Z,10.61
2023-03-27T12:22:24.586Z,11.71
2023-03-27T12:26:54.024Z,10.33
2023-03-27T12:31:26.418Z,8.42
2023-03-27T12:35:37.254Z,6.75
2023-03-27T12:39:51.906Z,6.06
2023-03-27T12:43:58.493Z,6.23
2023-03-27T12:48:20.603Z,7.92
2023-03-27T12:52:27.062Z,8.04
2023-03-27T12:56:37.300Z,7.62
2023-03-27T13:00:41.294Z,7.68
2023-03-27T13:05:02.599Z,8.09
2023-03-27T13:09:24.182Z,8.36
2023-03-27T13:14:11.600Z,7.98
2023-03-27T13:18:38.852Z,8.40
2023-03-27T13:22:58.034Z,9.64
2023-03-27T13:27:19.413Z,10.19
2023-03-27T13:32:00.714Z,9.77
2023-03-27T13:36:20.901Z,9.35
2023-03-27T13:40:28.760Z,10.18
2023-03-27T13:44:50.151Z,8.10
2023-03-27T13:49:16.204Z,6.46
2023-03-27T13:53:51.083Z,5.68
2023-03-27T13:58:37.730Z,6.22
2023-03-27T14:03:12.125Z,8.19
2023-03-27T14:07:48.785Z,9.18
2023-03-27T14:12:08.487Z,8.80
2023-03-27T14:17:01.467Z,8.75
2023-03-27T14:21:09.910Z,7.58
2023-03-27T14:25:24.567Z,8.20
2023-03-27T14:29:34.908Z,9.45
2023-03-27T14:33:39.257Z,9.58
2023-03-27T14:37:45.071Z,9.47
2023-03-27T14:42:03.673Z,10.20
2023-03-27T14:46:13.468Z,9.40
2023-03-27T14:50:18.254Z,8.11
2023-03-27T14:54:28.828Z,7.19
2023-03-27T14:58:44.393Z,6.61
2023-03-27T15:02:52.253Z,7.27
2023-03-27T15:07:13.235Z,8.92
2023-03-27T15:11:33.541Z,10.03
2023-03-27T15:15:50.303Z,8.83
2023-03-27T15:19:57.430Z,7.87
2023-03-27T15:24:06.311Z,8.37
2023-03-27T15:28:19.005Z,8.78
2023-03-27T15:32:23.624Z,8.75
2023-03-27T15:36:28.607Z,9.36
2023-03-27T15:40:42.661Z,8.77
2023-03-27T15:44:46.133Z,9.03
2023-03-27T15:48:55.529Z,9.65
2023-03-27T15:53:01.397Z,9.84
2023-03-27T15:57:11.569Z,10.36
2023-03-27T16:01:20.095Z,9.65
2023-03-27T16:05:25.902Z,8.10
2023-03-27T16:09:31.331Z,7.84
2023-03-27T16:13:37.308Z,8.42
2023-03-27T16:17:46.104Z,7.22
2023-03-27T16:21:58.088Z,6.96
2023-03-27T16:26:02.571Z,7.46
2023-03-27T16:30:10.020Z,7.51
2023-03-27T16:34:23.339Z,6.51
2023-03-27T16:38:42.079Z,6.75
2023-03-27T16:42:45.510Z,6.75
2023-03-27T16:46:48.808Z,7.68
2023-03-27T16:50:52.391Z,7.71
2023-03-27T16:54:57.239Z,7.32
2023-03-27T16:59:00.486Z,7.16
2023-03-27T17:03:03.860Z,6.81
2023-03-27T17:07:07.300Z,6.89
2023-03-27T17:11:14.508Z,6.40
2023-03-27T17:15:17.857Z,6.64
2023-03-27T17:19:21.897Z,6.63
2023-03-27T17:23:25.389Z,6.78
2023-03-27T17:27:30.299Z,6.72
2023-03-27T17:31:34.170Z,6.07
2023-03-27T17:35:40.449Z,5.66
2023-03-27T17:39:43.852Z,5.48
2023-03-27T17:43:49.724Z,5.29
2023-03-27T17:47:52.902Z,5.16
2023-03-27T17:51:56.239Z,5.06
2023-03-27T17:56:01.106Z,4.97
2023-03-27T18:00:07.695Z,4.90
2023-03-27T18:04:17.597Z,4.77
2023-03-27T18:08:20.947Z,4.68
2023-03-27T18:12:24.091Z,4.55
2023-03-27T18:16:28.695Z,4.51
2023-03-27T18:20:31.876Z,4.39
2023-03-27T18:24:35.030Z,4.31
2023-03-27T18:28:40.368Z,4.24
2023-03-27T18:32:46.617Z,4.11
2023-03-27T18:36:53.037Z,4.16
2023-03-27T18:40:57.960Z,4.28
2023-03-27T18:45:01.402Z,4.11
2023-03-27T18:49:21.518Z,4.05
2023-03-27T18:53:28.366Z,4.09
2023-03-27T18:57:34.570Z,4.22
2023-03-27T19:01:38.084Z,4.07
2023-03-27T19:05:42.747Z,4.01
2023-03-27T19:09:46.321Z,4.12
2023-03-27T19:13:52.731Z,4.08
2023-03-27T19:18:20.141Z,4.36
2023-03-27T19:22:51.451Z,4.26
2023-03-27T19:27:23.272Z,4.35
2023-03-27T19:31:30.064Z,4.21
2023-03-27T19:35:35.013Z,4.21
2023-03-27T19:39:39.682Z,4.01
2023-03-27T19:43:42.893Z,3.74
2023-03-27T19:47:46.093Z,3.47
2023-03-27T19:51:49.584Z,3.44
2023-03-27T19:55:54.604Z,3.34
2023-03-27T19:59:59.023Z,3.14
2023-03-27T20:04:02.340Z,3.20
2023-03-27T20:08:06.052Z,3.16
2023-03-27T20:12:12.461Z,3.10
2023-03-27T20:16:16.690Z,3.05
2023-03-27T20:20:25.043Z,3.12
2023-03-27T20:24:28.939Z,3.16
2023-03-27T20:28:36.980Z,3.17
2023-03-27T20:32:40.204Z,3.17
2023-03-27T20:36:43.512Z,3.26
2023-03-27T20:41:16.075Z,3.11
2023-03-27T20:45:26.892Z,3.05
2023-03-27T20:49:40.724Z,2.94
2023-03-27T20:53:54.430Z,2.99
2023-03-27T20:57:57.714Z,2.97
2023-03-27T21:02:02.722Z,2.87
2023-03-27T21:06:07.484Z,2.67
2023-03-27T21:10:11.948Z,2.54
2023-03-27T21:14:15.440Z,2.63
2023-03-27T21:18:20.767Z,2.58
2023-03-27T21:22:24.055Z,2.32
2023-03-27T21:26:27.264Z,2.27
2023-03-27T21:30:46.895Z,2.12
2023-03-27T21:34:52.943Z,2.11
2023-03-27T21:38:56.183Z,2.01
2023-03-27T21:42:59.864Z,2.08
2023-03-27T21:47:02.963Z,1.91
2023-03-27T21:51:09.420Z,1.99
2023-03-27T21:55:12.738Z,1.86
2023-03-27T21:59:16.190Z,1.90
2023-03-27T22:03:19.467Z,1.77
2023-03-27T22:07:24.040Z,1.79
2023-03-27T22:11:27.255Z,1.76
2023-03-27T22:15:31.576Z,1.72
2023-03-27T22:19:36.209Z,1.69
2023-03-27T22:23:40.777Z,1.75
2023-03-27T22:27:43.857Z,1.79
2023-03-27T22:31:47.108Z,1.79
2023-03-27T22:35:51.018Z,1.60
2023-03-27T22:39:55.576Z,1.46
2023-03-27T22:44:01.861Z,1.27
2023-03-27T22:48:06.075Z,1.21
2023-03-27T22:52:09.246Z,1.23
2023-03-27T22:56:13.854Z,1.21
2023-03-27T23:00:18.063Z,1.18
2023-03-27T23:04:21.554Z,1.23
2023-03-27T23:08:28.453Z,1.42
2023-03-27T23:12:33.105Z,1.27
2023-03-27T23:16:36.888Z,1.04
2023-03-27T23:20:41.095Z,1.04
2023-03-27T23:24:44.240Z,1.07
2023-03-27T23:28:48.732Z,0.90
2023-03-27T23:32:51.902Z,0.92
2023-03-27T23:36:58.010Z,0.99
2023-03-27T23:41:02.821Z,1.04
2023-03-27T23:45:08.720Z,1.08
2023-03-27T23:49:13.498Z,1.15
2023-03-27T23:53:17.152Z,1.17
2023-03-27T23:57:20.555Z,1.12
